sensor_id;sensor_type;location;lat;lon;timestamp;P1;durP1;ratioP1;P2;durP2;ratioP2
6828;SDS011;17930;48.592;8.868;2023-08-31T00:00:06;3.50;;;2.50;;
6828;SDS011;17930;48.592;8.868;2023-08-31T00:02:35;5.37;;;2.60;;
6828;SDS011;17930;48.592;8.868;2023-08-31T00:05:02;3.10;;;1.80;;
6828;SDS011;17930;48.592;8.868;2023-08-31T00:07:30;5.77;;;2.23;;
6828;SDS011;17930;48.592;8.868;2023-08-31T00:09:57;3.53;;;2.30;;
6828;SDS011;17930;48.592;8.868;2023-08-31T00:12:25;1.97;;;1.77;;
6828;SDS011;17930;48.592;8.868;2023-08-31T00:14:51;3.83;;;2.10;;
6828;SDS011;17930;48.592;8.868;2023-08-31T00:17:18;3.00;;;2.00;;
6828;SDS011;17930;48.592;8.868;2023-08-31T00:19:45;6.60;;;2.30;;
6828;SDS011;17930;48.592;8.868;2023-08-31T00:22:11;2.33;;;2.13;;
6828;SDS011;17930;48.592;8.868;2023-08-31T00:24:40;3.63;;;2.00;;
6828;SDS011;17930;48.592;8.868;2023-08-31T00:27:07;2.37;;;1.83;;
6828;SDS011;17930;48.592;8.868;2023-08-31T00:29:39;3.07;;;2.20;;
6828;SDS011;17930;48.592;8.868;2023-08-31T00:32:06;4.17;;;2.17;;
6828;SDS011;17930;48.592;8.868;2023-08-31T00:34:33;3.67;;;2.47;;
6828;SDS011;17930;48.592;8.868;2023-08-31T00:36:59;3.00;;;1.93;;
6828;SDS011;17930;48.592;8.868;2023-08-31T00:39:26;3.60;;;1.70;;
6828;SDS011;17930;48.592;8.868;2023-08-31T00:41:54;6.50;;;2.23;;
6828;SDS011;17930;48.592;8.868;2023-08-31T00:44:21;1.90;;;1.63;;
6828;SDS011;17930;48.592;8.868;2023-08-31T00:46:48;2.93;;;1.83;;
6828;SDS011;17930;48.592;8.868;2023-08-31T00:49:14;2.23;;;1.90;;
6828;SDS011;17930;48.592;8.868;2023-08-31T00:51:42;2.70;;;2.03;;
6828;SDS011;17930;48.592;8.868;2023-08-31T00:54:13;3.27;;;2.13;;
6828;SDS011;17930;48.592;8.868;2023-08-31T00:56:41;2.73;;;2.10;;
6828;SDS011;17930;48.592;8.868;2023-08-31T00:59:09;6.60;;;2.30;;
6828;SDS011;17930;48.592;8.868;2023-08-31T01:01:36;3.30;;;2.30;;
6828;SDS011;17930;48.592;8.868;2023-08-31T01:04:12;2.73;;;2.27;;
6828;SDS011;17930;48.592;8.868;2023-08-31T01:06:49;3.17;;;2.40;;
6828;SDS011;17930;48.592;8.868;2023-08-31T01:09:24;4.23;;;2.33;;
6828;SDS011;17930;48.592;8.868;2023-08-31T01:11:59;3.03;;;2.10;;
6828;SDS011;17930;48.592;8.868;2023-08-31T01:14:32;5.77;;;2.47;;
6828;SDS011;17930;48.592;8.868;2023-08-31T01:17:05;3.07;;;2.47;;
6828;SDS011;17930;48.592;8.868;2023-08-31T01:19:39;4.13;;;2.50;;
6828;SDS011;17930;48.592;8.868;2023-08-31T01:22:13;3.87;;;2.80;;
6828;SDS011;17930;48.592;8.868;2023-08-31T01:24:45;3.57;;;2.80;;
6828;SDS011;17930;48.592;8.868;2023-08-31T01:27:13;3.30;;;2.60;;
6828;SDS011;17930;48.592;8.868;2023-08-31T01:29:40;4.20;;;2.60;;
6828;SDS011;17930;48.592;8.868;2023-08-31T01:32:08;4.00;;;2.13;;
6828;SDS011;17930;48.592;8.868;2023-08-31T01:34:35;2.73;;;2.33;;
6828;SDS011;17930;48.592;8.868;2023-08-31T01:37:03;4.00;;;2.27;;
6828;SDS011;17930;48.592;8.868;2023-08-31T01:39:37;5.87;;;2.80;;
6828;SDS011;17930;48.592;8.868;2023-08-31T01:42:10;5.93;;;2.40;;
6828;SDS011;17930;48.592;8.868;2023-08-31T01:44:40;5.50;;;2.37;;
6828;SDS011;17930;48.592;8.868;2023-08-31T01:47:08;5.63;;;2.43;;
6828;SDS011;17930;48.592;8.868;2023-08-31T01:49:36;4.30;;;2.73;;
6828;SDS011;17930;48.592;8.868;2023-08-31T01:52:04;3.83;;;2.53;;
6828;SDS011;17930;48.592;8.868;2023-08-31T01:54:32;4.93;;;2.67;;
6828;SDS011;17930;48.592;8.868;2023-08-31T01:56:59;3.90;;;2.70;;
6828;SDS011;17930;48.592;8.868;2023-08-31T01:59:29;5.53;;;2.70;;
6828;SDS011;17930;48.592;8.868;2023-08-31T02:01:56;3.53;;;2.80;;
6828;SDS011;17930;48.592;8.868;2023-08-31T02:04:23;3.97;;;2.43;;
6828;SDS011;17930;48.592;8.868;2023-08-31T02:06:50;3.77;;;2.80;;
6828;SDS011;17930;48.592;8.868;2023-08-31T02:09:17;2.60;;;2.30;;
6828;SDS011;17930;48.592;8.868;2023-08-31T02:11:43;5.67;;;2.70;;
6828;SDS011;17930;48.592;8.868;2023-08-31T02:14:10;3.53;;;2.73;;
6828;SDS011;17930;48.592;8.868;2023-08-31T02:16:38;5.60;;;2.87;;
6828;SDS011;17930;48.592;8.868;2023-08-31T02:19:05;4.23;;;2.87;;
6828;SDS011;17930;48.592;8.868;2023-08-31T02:21:32;3.80;;;2.70;;
6828;SDS011;17930;48.592;8.868;2023-08-31T02:23:58;4.40;;;2.97;;
6828;SDS011;17930;48.592;8.868;2023-08-31T02:26:25;4.60;;;2.50;;
6828;SDS011;17930;48.592;8.868;2023-08-31T02:28:52;4.13;;;2.70;;
6828;SDS011;17930;48.592;8.868;2023-08-31T02:31:18;3.33;;;2.80;;
6828;SDS011;17930;48.592;8.868;2023-08-31T02:33:46;5.00;;;2.77;;
6828;SDS011;17930;48.592;8.868;2023-08-31T02:36:14;4.00;;;2.53;;
6828;SDS011;17930;48.592;8.868;2023-08-31T02:38:41;7.57;;;3.20;;
6828;SDS011;17930;48.592;8.868;2023-08-31T02:41:07;7.17;;;3.00;;
6828;SDS011;17930;48.592;8.868;2023-08-31T02:43:34;3.37;;;2.57;;
6828;SDS011;17930;48.592;8.868;2023-08-31T02:46:01;4.83;;;3.50;;
6828;SDS011;17930;48.592;8.868;2023-08-31T02:48:28;4.33;;;3.33;;
6828;SDS011;17930;48.592;8.868;2023-08-31T02:50:58;3.90;;;3.17;;
6828;SDS011;17930;48.592;8.868;2023-08-31T02:53:26;4.20;;;3.13;;
6828;SDS011;17930;48.592;8.868;2023-08-31T02:55:52;4.30;;;3.10;;
6828;SDS011;17930;48.592;8.868;2023-08-31T02:58:19;7.43;;;3.67;;
6828;SDS011;17930;48.592;8.868;2023-08-31T03:00:46;6.53;;;3.40;;
6828;SDS011;17930;48.592;8.868;2023-08-31T03:03:13;6.13;;;3.27;;
6828;SDS011;17930;48.592;8.868;2023-08-31T03:05:40;5.87;;;3.53;;
6828;SDS011;17930;48.592;8.868;2023-08-31T03:08:08;6.47;;;3.30;;
6828;SDS011;17930;48.592;8.868;2023-08-31T03:10:35;7.07;;;3.77;;
6828;SDS011;17930;48.592;8.868;2023-08-31T03:13:02;6.10;;;3.87;;
6828;SDS011;17930;48.592;8.868;2023-08-31T03:15:29;7.10;;;3.60;;
6828;SDS011;17930;48.592;8.868;2023-08-31T03:17:55;6.73;;;4.00;;
6828;SDS011;17930;48.592;8.868;2023-08-31T03:20:22;6.83;;;3.80;;
6828;SDS011;17930;48.592;8.868;2023-08-31T03:22:49;6.07;;;4.47;;
6828;SDS011;17930;48.592;8.868;2023-08-31T03:25:17;13.50;;;4.40;;
6828;SDS011;17930;48.592;8.868;2023-08-31T03:27:44;7.57;;;4.60;;
6828;SDS011;17930;48.592;8.868;2023-08-31T03:30:10;7.03;;;4.70;;
6828;SDS011;17930;48.592;8.868;2023-08-31T03:32:38;10.07;;;4.83;;
6828;SDS011;17930;48.592;8.868;2023-08-31T03:35:05;7.73;;;4.90;;
6828;SDS011;17930;48.592;8.868;2023-08-31T03:37:32;10.47;;;4.33;;
6828;SDS011;17930;48.592;8.868;2023-08-31T03:39:59;10.17;;;4.63;;
6828;SDS011;17930;48.592;8.868;2023-08-31T03:42:27;8.73;;;4.60;;
6828;SDS011;17930;48.592;8.868;2023-08-31T03:44:54;8.30;;;5.00;;
6828;SDS011;17930;48.592;8.868;2023-08-31T03:47:20;10.53;;;4.67;;
6828;SDS011;17930;48.592;8.868;2023-08-31T03:49:47;13.03;;;5.03;;
6828;SDS011;17930;48.592;8.868;2023-08-31T03:52:14;6.47;;;4.17;;
6828;SDS011;17930;48.592;8.868;2023-08-31T03:54:40;7.83;;;4.67;;
6828;SDS011;17930;48.592;8.868;2023-08-31T03:57:07;7.17;;;3.90;;
6828;SDS011;17930;48.592;8.868;2023-08-31T03:59:35;8.33;;;4.50;;
6828;SDS011;17930;48.592;8.868;2023-08-31T04:02:02;7.20;;;4.37;;
6828;SDS011;17930;48.592;8.868;2023-08-31T04:04:29;8.70;;;5.00;;
6828;SDS011;17930;48.592;8.868;2023-08-31T04:06:55;10.73;;;4.67;;
6828;SDS011;17930;48.592;8.868;2023-08-31T04:09:22;8.60;;;4.80;;
6828;SDS011;17930;48.592;8.868;2023-08-31T04:11:49;6.10;;;5.03;;
6828;SDS011;17930;48.592;8.868;2023-08-31T04:14:16;9.30;;;4.93;;
6828;SDS011;17930;48.592;8.868;2023-08-31T04:16:44;7.10;;;4.83;;
6828;SDS011;17930;48.592;8.868;2023-08-31T04:19:14;9.87;;;4.80;;
6828;SDS011;17930;48.592;8.868;2023-08-31T04:21:41;8.60;;;4.93;;
6828;SDS011;17930;48.592;8.868;2023-08-31T04:24:08;8.93;;;5.00;;
6828;SDS011;17930;48.592;8.868;2023-08-31T04:26:35;9.03;;;4.60;;
6828;SDS011;17930;48.592;8.868;2023-08-31T04:29:02;7.73;;;4.97;;
6828;SDS011;17930;48.592;8.868;2023-08-31T04:31:30;8.40;;;5.40;;
6828;SDS011;17930;48.592;8.868;2023-08-31T04:33:59;7.00;;;4.57;;
6828;SDS011;17930;48.592;8.868;2023-08-31T04:36:25;9.07;;;4.70;;
6828;SDS011;17930;48.592;8.868;2023-08-31T04:38:52;7.47;;;5.37;;
6828;SDS011;17930;48.592;8.868;2023-08-31T04:41:19;8.93;;;5.10;;
6828;SDS011;17930;48.592;8.868;2023-08-31T04:43:46;9.37;;;5.00;;
6828;SDS011;17930;48.592;8.868;2023-08-31T04:46:13;11.13;;;5.00;;
6828;SDS011;17930;48.592;8.868;2023-08-31T04:48:40;8.57;;;4.50;;
6828;SDS011;17930;48.592;8.868;2023-08-31T04:51:09;8.27;;;4.77;;
6828;SDS011;17930;48.592;8.868;2023-08-31T04:53:54;6.90;;;4.23;;
6828;SDS011;17930;48.592;8.868;2023-08-31T04:56:20;9.80;;;4.50;;
6828;SDS011;17930;48.592;8.868;2023-08-31T04:58:47;10.13;;;4.67;;
6828;SDS011;17930;48.592;8.868;2023-08-31T05:01:14;7.67;;;5.27;;
6828;SDS011;17930;48.592;8.868;2023-08-31T05:03:41;9.87;;;5.73;;
6828;SDS011;17930;48.592;8.868;2023-08-31T05:06:09;9.20;;;5.60;;
6828;SDS011;17930;48.592;8.868;2023-08-31T05:08:36;13.47;;;6.07;;
6828;SDS011;17930;48.592;8.868;2023-08-31T05:11:02;11.30;;;6.33;;
6828;SDS011;17930;48.592;8.868;2023-08-31T05:13:29;9.60;;;6.40;;
6828;SDS011;17930;48.592;8.868;2023-08-31T05:15:56;8.77;;;6.00;;
6828;SDS011;17930;48.592;8.868;2023-08-31T05:18:23;8.80;;;5.93;;
6828;SDS011;17930;48.592;8.868;2023-08-31T05:20:50;9.43;;;6.50;;
6828;SDS011;17930;48.592;8.868;2023-08-31T05:23:18;17.17;;;6.43;;
6828;SDS011;17930;48.592;8.868;2023-08-31T05:25:45;9.27;;;5.43;;
6828;SDS011;17930;48.592;8.868;2023-08-31T05:28:12;10.30;;;6.37;;
6828;SDS011;17930;48.592;8.868;2023-08-31T05:30:47;11.80;;;5.27;;
6828;SDS011;17930;48.592;8.868;2023-08-31T05:33:15;8.80;;;4.90;;
6828;SDS011;17930;48.592;8.868;2023-08-31T05:35:42;8.63;;;5.00;;
6828;SDS011;17930;48.592;8.868;2023-08-31T05:38:08;6.53;;;4.43;;
6828;SDS011;17930;48.592;8.868;2023-08-31T05:40:36;8.40;;;5.07;;
6828;SDS011;17930;48.592;8.868;2023-08-31T05:43:04;10.10;;;5.47;;
6828;SDS011;17930;48.592;8.868;2023-08-31T05:45:31;11.23;;;6.47;;
6828;SDS011;17930;48.592;8.868;2023-08-31T05:47:58;14.47;;;6.83;;
6828;SDS011;17930;48.592;8.868;2023-08-31T05:50:25;10.93;;;5.77;;
6828;SDS011;17930;48.592;8.868;2023-08-31T05:52:52;9.37;;;5.00;;
6828;SDS011;17930;48.592;8.868;2023-08-31T05:55:19;6.33;;;4.53;;
6828;SDS011;17930;48.592;8.868;2023-08-31T05:57:47;7.47;;;4.83;;
6828;SDS011;17930;48.592;8.868;2023-08-31T06:00:14;9.37;;;4.43;;
6828;SDS011;17930;48.592;8.868;2023-08-31T06:02:41;9.40;;;4.93;;
6828;SDS011;17930;48.592;8.868;2023-08-31T06:05:09;5.73;;;4.67;;
6828;SDS011;17930;48.592;8.868;2023-08-31T06:07:37;11.70;;;5.20;;
6828;SDS011;17930;48.592;8.868;2023-08-31T06:10:04;10.77;;;5.27;;
6828;SDS011;17930;48.592;8.868;2023-08-31T06:12:31;10.13;;;5.63;;
6828;SDS011;17930;48.592;8.868;2023-08-31T06:14:59;8.23;;;5.07;;
6828;SDS011;17930;48.592;8.868;2023-08-31T06:17:26;8.20;;;5.10;;
6828;SDS011;17930;48.592;8.868;2023-08-31T06:19:53;5.83;;;4.87;;
6828;SDS011;17930;48.592;8.868;2023-08-31T06:22:20;7.20;;;4.77;;
6828;SDS011;17930;48.592;8.868;2023-08-31T06:24:48;5.30;;;4.20;;
6828;SDS011;17930;48.592;8.868;2023-08-31T06:27:15;7.90;;;4.73;;
6828;SDS011;17930;48.592;8.868;2023-08-31T06:29:43;6.00;;;3.90;;
6828;SDS011;17930;48.592;8.868;2023-08-31T06:32:11;9.17;;;4.40;;
6828;SDS011;17930;48.592;8.868;2023-08-31T06:34:38;8.73;;;4.57;;
6828;SDS011;17930;48.592;8.868;2023-08-31T06:37:05;3.93;;;3.13;;
6828;SDS011;17930;48.592;8.868;2023-08-31T06:39:32;6.07;;;2.93;;
6828;SDS011;17930;48.592;8.868;2023-08-31T06:41:59;3.37;;;2.53;;
6828;SDS011;17930;48.592;8.868;2023-08-31T06:44:26;8.27;;;2.83;;
6828;SDS011;17930;48.592;8.868;2023-08-31T06:46:54;2.90;;;2.60;;
6828;SDS011;17930;48.592;8.868;2023-08-31T06:49:22;5.73;;;3.00;;
6828;SDS011;17930;48.592;8.868;2023-08-31T06:51:49;3.67;;;2.30;;
6828;SDS011;17930;48.592;8.868;2023-08-31T06:54:16;4.17;;;2.33;;
6828;SDS011;17930;48.592;8.868;2023-08-31T06:56:43;3.07;;;1.90;;
6828;SDS011;17930;48.592;8.868;2023-08-31T06:59:13;5.43;;;2.20;;
6828;SDS011;17930;48.592;8.868;2023-08-31T07:01:40;3.20;;;2.07;;
6828;SDS011;17930;48.592;8.868;2023-08-31T07:04:07;3.50;;;2.27;;
6828;SDS011;17930;48.592;8.868;2023-08-31T07:06:35;5.03;;;2.20;;
6828;SDS011;17930;48.592;8.868;2023-08-31T07:09:02;3.13;;;2.13;;
6828;SDS011;17930;48.592;8.868;2023-08-31T07:11:30;4.30;;;2.20;;
6828;SDS011;17930;48.592;8.868;2023-08-31T07:13:57;4.23;;;2.00;;
6828;SDS011;17930;48.592;8.868;2023-08-31T07:16:24;3.27;;;2.00;;
6828;SDS011;17930;48.592;8.868;2023-08-31T07:18:51;3.43;;;1.90;;
6828;SDS011;17930;48.592;8.868;2023-08-31T07:21:18;4.70;;;1.90;;
6828;SDS011;17930;48.592;8.868;2023-08-31T07:23:46;6.63;;;2.00;;
6828;SDS011;17930;48.592;8.868;2023-08-31T07:26:13;2.70;;;1.60;;
6828;SDS011;17930;48.592;8.868;2023-08-31T07:28:41;3.23;;;1.90;;
6828;SDS011;17930;48.592;8.868;2023-08-31T07:31:08;2.83;;;1.63;;
6828;SDS011;17930;48.592;8.868;2023-08-31T07:33:34;2.67;;;1.60;;
6828;SDS011;17930;48.592;8.868;2023-08-31T07:36:01;3.77;;;1.70;;
6828;SDS011;17930;48.592;8.868;2023-08-31T07:38:30;3.93;;;1.80;;
6828;SDS011;17930;48.592;8.868;2023-08-31T07:40:59;3.87;;;1.60;;
6828;SDS011;17930;48.592;8.868;2023-08-31T07:43:26;3.83;;;2.17;;
6828;SDS011;17930;48.592;8.868;2023-08-31T07:45:53;3.80;;;1.73;;
6828;SDS011;17930;48.592;8.868;2023-08-31T07:48:20;2.80;;;1.77;;
6828;SDS011;17930;48.592;8.868;2023-08-31T07:50:47;3.13;;;1.70;;
6828;SDS011;17930;48.592;8.868;2023-08-31T07:53:14;2.83;;;1.67;;
6828;SDS011;17930;48.592;8.868;2023-08-31T07:55:50;2.73;;;1.67;;
6828;SDS011;17930;48.592;8.868;2023-08-31T07:58:19;4.33;;;1.67;;
6828;SDS011;17930;48.592;8.868;2023-08-31T08:00:46;4.87;;;1.90;;
6828;SDS011;17930;48.592;8.868;2023-08-31T08:03:13;4.10;;;1.70;;
6828;SDS011;17930;48.592;8.868;2023-08-31T08:05:40;2.10;;;1.70;;
6828;SDS011;17930;48.592;8.868;2023-08-31T08:08:07;4.37;;;1.60;;
6828;SDS011;17930;48.592;8.868;2023-08-31T08:10:34;3.53;;;1.57;;
6828;SDS011;17930;48.592;8.868;2023-08-31T08:13:01;2.90;;;1.83;;
6828;SDS011;17930;48.592;8.868;2023-08-31T08:15:30;1.80;;;1.60;;
6828;SDS011;17930;48.592;8.868;2023-08-31T08:17:57;3.10;;;1.63;;
6828;SDS011;17930;48.592;8.868;2023-08-31T08:20:24;2.37;;;1.90;;
6828;SDS011;17930;48.592;8.868;2023-08-31T08:22:51;3.00;;;1.70;;
6828;SDS011;17930;48.592;8.868;2023-08-31T08:25:18;2.23;;;1.53;;
6828;SDS011;17930;48.592;8.868;2023-08-31T08:27:45;4.03;;;1.70;;
6828;SDS011;17930;48.592;8.868;2023-08-31T08:30:12;3.83;;;1.90;;
6828;SDS011;17930;48.592;8.868;2023-08-31T08:32:40;3.70;;;1.77;;
6828;SDS011;17930;48.592;8.868;2023-08-31T08:35:07;4.40;;;2.10;;
6828;SDS011;17930;48.592;8.868;2023-08-31T08:37:35;3.43;;;1.77;;
6828;SDS011;17930;48.592;8.868;2023-08-31T08:40:01;3.53;;;1.70;;
6828;SDS011;17930;48.592;8.868;2023-08-31T08:42:29;3.03;;;1.60;;
6828;SDS011;17930;48.592;8.868;2023-08-31T08:44:57;3.47;;;1.70;;
6828;SDS011;17930;48.592;8.868;2023-08-31T08:47:25;3.80;;;1.80;;
6828;SDS011;17930;48.592;8.868;2023-08-31T08:49:54;4.63;;;1.90;;
6828;SDS011;17930;48.592;8.868;2023-08-31T08:52:22;5.17;;;1.83;;
6828;SDS011;17930;48.592;8.868;2023-08-31T08:54:49;4.33;;;1.73;;
6828;SDS011;17930;48.592;8.868;2023-08-31T08:57:16;3.03;;;1.50;;
6828;SDS011;17930;48.592;8.868;2023-08-31T08:59:42;3.47;;;1.83;;
6828;SDS011;17930;48.592;8.868;2023-08-31T09:02:10;4.03;;;1.70;;
6828;SDS011;17930;48.592;8.868;2023-08-31T09:04:37;4.63;;;2.00;;
6828;SDS011;17930;48.592;8.868;2023-08-31T09:07:05;4.27;;;1.67;;
6828;SDS011;17930;48.592;8.868;2023-08-31T09:09:32;3.07;;;1.53;;
6828;SDS011;17930;48.592;8.868;2023-08-31T09:12:06;3.23;;;1.63;;
6828;SDS011;17930;48.592;8.868;2023-08-31T09:14:34;3.00;;;1.70;;
6828;SDS011;17930;48.592;8.868;2023-08-31T09:17:00;5.23;;;1.80;;
6828;SDS011;17930;48.592;8.868;2023-08-31T09:19:27;4.93;;;1.80;;
6828;SDS011;17930;48.592;8.868;2023-08-31T09:21:55;2.80;;;1.50;;
6828;SDS011;17930;48.592;8.868;2023-08-31T09:24:24;5.03;;;1.80;;
6828;SDS011;17930;48.592;8.868;2023-08-31T09:26:52;3.03;;;2.03;;
6828;SDS011;17930;48.592;8.868;2023-08-31T09:29:20;3.23;;;1.80;;
6828;SDS011;17930;48.592;8.868;2023-08-31T09:31:46;3.03;;;1.60;;
6828;SDS011;17930;48.592;8.868;2023-08-31T09:34:13;3.97;;;1.70;;
6828;SDS011;17930;48.592;8.868;2023-08-31T09:36:41;6.87;;;2.13;;
6828;SDS011;17930;48.592;8.868;2023-08-31T09:39:08;3.80;;;1.93;;
6828;SDS011;17930;48.592;8.868;2023-08-31T09:41:39;3.37;;;1.80;;
6828;SDS011;17930;48.592;8.868;2023-08-31T09:44:19;4.17;;;1.80;;
6828;SDS011;17930;48.592;8.868;2023-08-31T09:46:46;4.17;;;2.20;;
6828;SDS011;17930;48.592;8.868;2023-08-31T09:49:13;3.50;;;1.90;;
6828;SDS011;17930;48.592;8.868;2023-08-31T09:51:43;4.90;;;1.97;;
6828;SDS011;17930;48.592;8.868;2023-08-31T09:54:12;2.60;;;1.60;;
6828;SDS011;17930;48.592;8.868;2023-08-31T09:56:42;3.93;;;1.57;;
6828;SDS011;17930;48.592;8.868;2023-08-31T09:59:09;4.97;;;1.93;;
6828;SDS011;17930;48.592;8.868;2023-08-31T10:01:38;5.13;;;1.90;;
6828;SDS011;17930;48.592;8.868;2023-08-31T10:04:05;4.07;;;1.83;;
6828;SDS011;17930;48.592;8.868;2023-08-31T10:06:34;5.67;;;1.80;;
6828;SDS011;17930;48.592;8.868;2023-08-31T10:09:03;2.57;;;1.70;;
6828;SDS011;17930;48.592;8.868;2023-08-31T10:11:29;4.17;;;1.80;;
6828;SDS011;17930;48.592;8.868;2023-08-31T10:13:58;3.63;;;1.57;;
6828;SDS011;17930;48.592;8.868;2023-08-31T10:16:25;3.30;;;1.63;;
6828;SDS011;17930;48.592;8.868;2023-08-31T10:18:53;7.33;;;1.97;;
6828;SDS011;17930;48.592;8.868;2023-08-31T10:21:21;3.17;;;1.40;;
6828;SDS011;17930;48.592;8.868;2023-08-31T10:23:49;5.50;;;1.73;;
6828;SDS011;17930;48.592;8.868;2023-08-31T10:26:23;6.83;;;2.40;;
6828;SDS011;17930;48.592;8.868;2023-08-31T10:28:50;4.17;;;1.93;;
6828;SDS011;17930;48.592;8.868;2023-08-31T10:31:19;5.30;;;1.57;;
6828;SDS011;17930;48.592;8.868;2023-08-31T10:33:55;2.93;;;1.53;;
6828;SDS011;17930;48.592;8.868;2023-08-31T10:36:33;3.63;;;1.60;;
6828;SDS011;17930;48.592;8.868;2023-08-31T10:39:05;4.37;;;1.50;;
6828;SDS011;17930;48.592;8.868;2023-08-31T10:41:34;3.67;;;1.80;;
6828;SDS011;17930;48.592;8.868;2023-08-31T10:44:01;4.17;;;1.80;;
6828;SDS011;17930;48.592;8.868;2023-08-31T10:46:30;3.40;;;1.70;;
6828;SDS011;17930;48.592;8.868;2023-08-31T10:48:59;4.57;;;2.00;;
6828;SDS011;17930;48.592;8.868;2023-08-31T10:51:29;3.23;;;1.67;;
6828;SDS011;17930;48.592;8.868;2023-08-31T10:54:07;3.47;;;1.60;;
6828;SDS011;17930;48.592;8.868;2023-08-31T10:56:51;5.73;;;1.80;;
6828;SDS011;17930;48.592;8.868;2023-08-31T10:59:40;4.93;;;1.70;;
6828;SDS011;17930;48.592;8.868;2023-08-31T11:02:10;3.30;;;1.70;;
6828;SDS011;17930;48.592;8.868;2023-08-31T11:04:58;3.43;;;1.50;;
6828;SDS011;17930;48.592;8.868;2023-08-31T11:07:30;3.80;;;1.80;;
6828;SDS011;17930;48.592;8.868;2023-08-31T11:10:07;3.87;;;1.70;;
6828;SDS011;17930;48.592;8.868;2023-08-31T11:12:35;4.87;;;2.30;;
6828;SDS011;17930;48.592;8.868;2023-08-31T11:15:02;5.27;;;1.80;;
6828;SDS011;17930;48.592;8.868;2023-08-31T11:17:31;5.67;;;1.70;;
6828;SDS011;17930;48.592;8.868;2023-08-31T11:19:59;4.17;;;2.07;;
6828;SDS011;17930;48.592;8.868;2023-08-31T11:22:25;1.67;;;1.27;;
6828;SDS011;17930;48.592;8.868;2023-08-31T11:24:52;3.30;;;1.90;;
6828;SDS011;17930;48.592;8.868;2023-08-31T11:27:20;5.30;;;1.73;;
6828;SDS011;17930;48.592;8.868;2023-08-31T11:29:50;4.63;;;1.70;;
6828;SDS011;17930;48.592;8.868;2023-08-31T11:32:18;4.80;;;2.00;;
6828;SDS011;17930;48.592;8.868;2023-08-31T11:34:46;4.83;;;1.43;;
6828;SDS011;17930;48.592;8.868;2023-08-31T11:37:16;2.87;;;1.40;;
6828;SDS011;17930;48.592;8.868;2023-08-31T11:39:48;3.53;;;1.90;;
6828;SDS011;17930;48.592;8.868;2023-08-31T11:42:15;3.40;;;1.93;;
6828;SDS011;17930;48.592;8.868;2023-08-31T11:44:43;3.57;;;1.80;;
6828;SDS011;17930;48.592;8.868;2023-08-31T11:47:11;3.33;;;1.57;;
6828;SDS011;17930;48.592;8.868;2023-08-31T11:49:39;5.23;;;2.70;;
6828;SDS011;17930;48.592;8.868;2023-08-31T11:52:09;3.33;;;1.50;;
6828;SDS011;17930;48.592;8.868;2023-08-31T11:54:43;5.90;;;1.97;;
6828;SDS011;17930;48.592;8.868;2023-08-31T11:57:11;2.43;;;1.50;;
6828;SDS011;17930;48.592;8.868;2023-08-31T11:59:38;2.43;;;1.60;;
6828;SDS011;17930;48.592;8.868;2023-08-31T12:02:10;4.03;;;1.60;;
6828;SDS011;17930;48.592;8.868;2023-08-31T12:04:42;2.43;;;1.60;;
6828;SDS011;17930;48.592;8.868;2023-08-31T12:07:11;5.70;;;1.90;;
6828;SDS011;17930;48.592;8.868;2023-08-31T12:09:42;3.70;;;1.83;;
6828;SDS011;17930;48.592;8.868;2023-08-31T12:12:10;3.27;;;1.67;;
6828;SDS011;17930;48.592;8.868;2023-08-31T12:14:37;3.50;;;1.50;;
6828;SDS011;17930;48.592;8.868;2023-08-31T12:17:05;2.90;;;1.53;;
6828;SDS011;17930;48.592;8.868;2023-08-31T12:19:35;3.17;;;1.60;;
6828;SDS011;17930;48.592;8.868;2023-08-31T12:22:03;4.17;;;1.63;;
6828;SDS011;17930;48.592;8.868;2023-08-31T12:24:37;4.13;;;1.60;;
6828;SDS011;17930;48.592;8.868;2023-08-31T12:27:05;4.00;;;1.90;;
6828;SDS011;17930;48.592;8.868;2023-08-31T12:29:32;3.47;;;1.80;;
6828;SDS011;17930;48.592;8.868;2023-08-31T12:31:59;3.57;;;1.77;;
6828;SDS011;17930;48.592;8.868;2023-08-31T12:34:26;5.13;;;1.77;;
6828;SDS011;17930;48.592;8.868;2023-08-31T12:37:01;4.80;;;1.80;;
6828;SDS011;17930;48.592;8.868;2023-08-31T12:39:35;4.07;;;1.80;;
6828;SDS011;17930;48.592;8.868;2023-08-31T12:42:04;4.63;;;1.60;;
6828;SDS011;17930;48.592;8.868;2023-08-31T12:44:32;2.43;;;1.70;;
6828;SDS011;17930;48.592;8.868;2023-08-31T12:46:58;3.90;;;2.00;;
6828;SDS011;17930;48.592;8.868;2023-08-31T12:49:25;2.43;;;1.50;;
6828;SDS011;17930;48.592;8.868;2023-08-31T12:51:52;3.17;;;1.47;;
6828;SDS011;17930;48.592;8.868;2023-08-31T12:54:19;4.80;;;2.00;;
6828;SDS011;17930;48.592;8.868;2023-08-31T12:56:56;3.37;;;1.87;;
6828;SDS011;17930;48.592;8.868;2023-08-31T12:59:23;6.20;;;2.00;;
6828;SDS011;17930;48.592;8.868;2023-08-31T13:01:51;2.27;;;1.43;;
6828;SDS011;17930;48.592;8.868;2023-08-31T13:04:18;2.63;;;1.63;;
6828;SDS011;17930;48.592;8.868;2023-08-31T13:06:45;2.97;;;1.70;;
6828;SDS011;17930;48.592;8.868;2023-08-31T13:09:12;7.47;;;1.80;;
6828;SDS011;17930;48.592;8.868;2023-08-31T13:11:39;3.50;;;1.60;;
6828;SDS011;17930;48.592;8.868;2023-08-31T13:14:07;4.43;;;1.90;;
6828;SDS011;17930;48.592;8.868;2023-08-31T13:16:34;4.93;;;1.87;;
6828;SDS011;17930;48.592;8.868;2023-08-31T13:19:02;3.57;;;1.50;;
6828;SDS011;17930;48.592;8.868;2023-08-31T13:21:30;2.53;;;1.40;;
6828;SDS011;17930;48.592;8.868;2023-08-31T13:23:58;3.00;;;1.67;;
6828;SDS011;17930;48.592;8.868;2023-08-31T13:26:25;3.17;;;1.80;;
6828;SDS011;17930;48.592;8.868;2023-08-31T13:28:52;3.67;;;1.60;;
6828;SDS011;17930;48.592;8.868;2023-08-31T13:31:20;2.97;;;1.60;;
6828;SDS011;17930;48.592;8.868;2023-08-31T13:33:47;3.43;;;1.70;;
6828;SDS011;17930;48.592;8.868;2023-08-31T13:36:14;3.27;;;1.73;;
6828;SDS011;17930;48.592;8.868;2023-08-31T13:38:40;2.47;;;1.53;;
6828;SDS011;17930;48.592;8.868;2023-08-31T13:41:07;4.33;;;1.50;;
6828;SDS011;17930;48.592;8.868;2023-08-31T13:43:34;3.70;;;1.80;;
6828;SDS011;17930;48.592;8.868;2023-08-31T13:46:01;6.17;;;1.80;;
6828;SDS011;17930;48.592;8.868;2023-08-31T13:48:31;2.43;;;1.40;;
6828;SDS011;17930;48.592;8.868;2023-08-31T13:51:00;5.37;;;2.40;;
6828;SDS011;17930;48.592;8.868;2023-08-31T13:53:29;5.00;;;1.90;;
6828;SDS011;17930;48.592;8.868;2023-08-31T13:55:56;8.57;;;2.13;;
6828;SDS011;17930;48.592;8.868;2023-08-31T13:58:23;5.17;;;1.50;;
6828;SDS011;17930;48.592;8.868;2023-08-31T14:00:49;3.23;;;1.50;;
6828;SDS011;17930;48.592;8.868;2023-08-31T14:03:16;4.70;;;1.77;;
6828;SDS011;17930;48.592;8.868;2023-08-31T14:05:48;3.47;;;1.80;;
6828;SDS011;17930;48.592;8.868;2023-08-31T14:08:15;3.97;;;1.57;;
6828;SDS011;17930;48.592;8.868;2023-08-31T14:10:42;4.40;;;1.87;;
6828;SDS011;17930;48.592;8.868;2023-08-31T14:13:08;3.37;;;1.70;;
6828;SDS011;17930;48.592;8.868;2023-08-31T14:15:35;4.10;;;1.90;;
6828;SDS011;17930;48.592;8.868;2023-08-31T14:18:05;5.23;;;2.20;;
6828;SDS011;17930;48.592;8.868;2023-08-31T14:20:33;3.83;;;1.90;;
6828;SDS011;17930;48.592;8.868;2023-08-31T14:23:01;4.83;;;2.10;;
6828;SDS011;17930;48.592;8.868;2023-08-31T14:25:28;4.53;;;1.70;;
6828;SDS011;17930;48.592;8.868;2023-08-31T14:27:55;4.70;;;1.77;;
6828;SDS011;17930;48.592;8.868;2023-08-31T14:30:21;4.43;;;2.03;;
6828;SDS011;17930;48.592;8.868;2023-08-31T14:32:48;3.43;;;1.80;;
6828;SDS011;17930;48.592;8.868;2023-08-31T14:35:15;7.10;;;2.10;;
6828;SDS011;17930;48.592;8.868;2023-08-31T14:37:41;4.00;;;1.77;;
6828;SDS011;17930;48.592;8.868;2023-08-31T14:40:10;4.47;;;1.67;;
6828;SDS011;17930;48.592;8.868;2023-08-31T14:42:37;2.53;;;1.70;;
6828;SDS011;17930;48.592;8.868;2023-08-31T14:45:05;4.80;;;2.23;;
6828;SDS011;17930;48.592;8.868;2023-08-31T14:47:32;3.83;;;1.70;;
6828;SDS011;17930;48.592;8.868;2023-08-31T14:49:59;3.87;;;1.93;;
6828;SDS011;17930;48.592;8.868;2023-08-31T14:52:25;2.83;;;1.80;;
6828;SDS011;17930;48.592;8.868;2023-08-31T14:54:52;5.73;;;2.00;;
6828;SDS011;17930;48.592;8.868;2023-08-31T14:57:20;3.63;;;2.10;;
6828;SDS011;17930;48.592;8.868;2023-08-31T14:59:47;5.40;;;1.87;;
6828;SDS011;17930;48.592;8.868;2023-08-31T15:02:18;3.33;;;1.60;;
6828;SDS011;17930;48.592;8.868;2023-08-31T15:04:47;3.07;;;2.00;;